sensor_id;sensor_type;location;lat;lon;timestamp;pressure;altitude;pressure_sealevel;temperature;humidity
9774;BME280;4926;42.670;23.316;2022-07-10T00:00:10;94457.03;;;17.69;100.00
9774;BME280;4926;42.670;23.316;2022-07-10T00:02:40;94454.22;;;17.65;100.00
9774;BME280;4926;42.670;23.316;2022-07-10T00:05:09;94453.88;;;17.67;100.00
9774;BME280;4926;42.670;23.316;2022-07-10T00:07:39;94458.59;;;17.58;100.00
9774;BME280;4926;42.670;23.316;2022-07-10T00:10:07;94458.13;;;17.56;100.00
9774;BME280;4926;42.670;23.316;2022-07-10T00:12:36;94455.44;;;17.56;100.00
9774;BME280;4926;42.670;23.316;2022-07-10T00:15:07;94451.63;;;17.57;100.00
9774;BME280;4926;42.670;23.316;2022-07-10T00:17:37;94458.34;;;17.51;100.00
9774;BME280;4926;42.670;23.316;2022-07-10T00:20:07;94445.31;;;17.53;100.00
9774;BME280;4926;42.670;23.316;2022-07-10T00:22:37;94450.56;;;17.49;100.00
9774;BME280;4926;42.670;23.316;2022-07-10T00:25:05;94451.25;;;17.46;100.00
9774;BME280;4926;42.670;23.316;2022-07-10T00:27:32;94436.41;;;17.40;100.00
9774;BME280;4926;42.670;23.316;2022-07-10T00:30:03;94441.00;;;17.40;100.00
9774;BME280;4926;42.670;23.316;2022-07-10T00:32:31;94441.28;;;17.47;100.00
9774;BME280;4926;42.670;23.316;2022-07-10T00:34:58;94443.75;;;17.52;100.00
9774;BME280;4926;42.670;23.316;2022-07-10T00:37:25;94436.53;;;17.44;100.00
9774;BME280;4926;42.670;23.316;2022-07-10T00:39:51;94443.47;;;17.45;100.00
9774;BME280;4926;42.670;23.316;2022-07-10T00:42:18;94447.13;;;17.49;100.00
9774;BME280;4926;42.670;23.316;2022-07-10T00:44:46;94435.25;;;17.29;100.00
9774;BME280;4926;42.670;23.316;2022-07-10T00:47:13;94432.22;;;17.31;100.00
9774;BME280;4926;42.670;23.316;2022-07-10T00:49:44;94432.47;;;17.38;100.00
9774;BME280;4926;42.670;23.316;2022-07-10T00:52:13;94433.25;;;17.38;100.00
9774;BME280;4926;42.670;23.316;2022-07-10T00:54:44;94411.38;;;17.28;100.00
9774;BME280;4926;42.670;23.316;2022-07-10T00:57:12;94423.81;;;17.32;100.00
9774;BME280;4926;42.670;23.316;2022-07-10T00:59:41;94430.78;;;17.33;100.00
9774;BME280;4926;42.670;23.316;2022-07-10T01:02:07;94430.78;;;17.33;100.00
9774;BME280;4926;42.670;23.316;2022-07-10T01:04:34;94424.22;;;17.22;100.00
9774;BME280;4926;42.670;23.316;2022-07-10T01:07:03;94414.78;;;17.16;100.00
9774;BME280;4926;42.670;23.316;2022-07-10T01:09:30;94416.50;;;17.21;100.00
9774;BME280;4926;42.670;23.316;2022-07-10T01:11:59;94424.22;;;17.22;100.00
9774;BME280;4926;42.670;23.316;2022-07-10T01:14:27;94414.28;;;17.23;100.00
9774;BME280;4926;42.670;23.316;2022-07-10T01:16:54;94431.50;;;17.22;100.00
9774;BME280;4926;42.670;23.316;2022-07-10T01:19:21;94416.91;;;17.11;100.00
9774;BME280;4926;42.670;23.316;2022-07-10T01:21:54;94420.84;;;17.13;100.00
9774;BME280;4926;42.670;23.316;2022-07-10T01:24:21;94414.03;;;17.16;100.00
9774;BME280;4926;42.670;23.316;2022-07-10T01:26:48;94414.78;;;17.16;100.00
9774;BME280;4926;42.670;23.316;2022-07-10T01:29:17;94410.06;;;17.13;100.00
9774;BME280;4926;42.670;23.316;2022-07-10T01:31:44;94412.31;;;17.11;100.00
9774;BME280;4926;42.670;23.316;2022-07-10T01:34:17;94403.97;;;17.04;100.00
9774;BME280;4926;42.670;23.316;2022-07-10T01:36:43;94411.06;;;17.09;100.00
9774;BME280;4926;42.670;23.316;2022-07-10T01:39:13;94394.72;;;17.14;100.00
9774;BME280;4926;42.670;23.316;2022-07-10T01:41:45;94396.72;;;17.05;100.00
9774;BME280;4926;42.670;23.316;2022-07-10T01:44:14;94396.63;;;17.13;100.00
9774;BME280;4926;42.670;23.316;2022-07-10T01:46:45;94388.69;;;17.17;100.00
9774;BME280;4926;42.670;23.316;2022-07-10T01:49:12;94390.03;;;17.11;100.00
9774;BME280;4926;42.670;23.316;2022-07-10T01:51:39;94394.25;;;17.12;100.00
9774;BME280;4926;42.670;23.316;2022-07-10T01:54:06;94393.59;;;17.15;100.00
9774;BME280;4926;42.670;23.316;2022-07-10T01:56:34;94398.00;;;17.19;100.00
9774;BME280;4926;42.670;23.316;2022-07-10T01:59:01;94397.22;;;17.19;100.00
9774;BME280;4926;42.670;23.316;2022-07-10T02:01:31;94387.75;;;17.13;100.00
9774;BME280;4926;42.670;23.316;2022-07-10T02:03:58;94386.88;;;17.09;100.00
9774;BME280;4926;42.670;23.316;2022-07-10T02:06:42;94393.88;;;17.01;100.00
9774;BME280;4926;42.670;23.316;2022-07-10T02:09:10;94387.25;;;16.99;100.00
9774;BME280;4926;42.670;23.316;2022-07-10T02:11:38;94377.63;;;16.98;100.00
9774;BME280;4926;42.670;23.316;2022-07-10T02:14:05;94381.00;;;16.95;100.00
9774;BME280;4926;42.670;23.316;2022-07-10T02:16:33;94382.53;;;16.96;100.00
9774;BME280;4926;42.670;23.316;2022-07-10T02:19:04;94389.38;;;16.93;100.00
9774;BME280;4926;42.670;23.316;2022-07-10T02:21:32;94380.19;;;16.94;100.00
9774;BME280;4926;42.670;23.316;2022-07-10T02:23:59;94384.53;;;16.87;100.00
9774;BME280;4926;42.670;23.316;2022-07-10T02:26:27;94377.25;;;16.87;100.00
9774;BME280;4926;42.670;23.316;2022-07-10T02:28:55;94384.09;;;16.85;100.00
9774;BME280;4926;42.670;23.316;2022-07-10T02:31:24;94384.25;;;16.80;100.00
9774;BME280;4926;42.670;23.316;2022-07-10T02:33:50;94380.00;;;16.79;100.00
9774;BME280;4926;42.670;23.316;2022-07-10T02:36:17;94383.84;;;16.78;100.00
9774;BME280;4926;42.670;23.316;2022-07-10T02:38:44;94381.16;;;16.78;100.00
9774;BME280;4926;42.670;23.316;2022-07-10T02:41:11;94380.00;;;16.79;100.00
9774;BME280;4926;42.670;23.316;2022-07-10T02:43:38;94384.66;;;16.69;100.00
9774;BME280;4926;42.670;23.316;2022-07-10T02:46:08;94378.00;;;16.76;100.00
9774;BME280;4926;42.670;23.316;2022-07-10T02:48:35;94380.22;;;16.73;100.00
9774;BME280;4926;42.670;23.316;2022-07-10T02:51:01;94388.75;;;16.76;100.00
9774;BME280;4926;42.670;23.316;2022-07-10T02:53:30;94398.56;;;16.71;100.00
9774;BME280;4926;42.670;23.316;2022-07-10T02:55:57;94396.47;;;16.77;100.00
9774;BME280;4926;42.670;23.316;2022-07-10T02:58:26;94399.50;;;16.76;100.00
9774;BME280;4926;42.670;23.316;2022-07-10T03:00:53;94391.78;;;16.74;100.00
9774;BME280;4926;42.670;23.316;2022-07-10T03:03:21;94404.88;;;16.76;100.00
9774;BME280;4926;42.670;23.316;2022-07-10T03:05:48;94398.97;;;16.82;100.00
9774;BME280;4926;42.670;23.316;2022-07-10T03:08:15;94397.53;;;16.85;100.00
9774;BME280;4926;42.670;23.316;2022-07-10T03:10:42;94404.47;;;16.86;100.00
9774;BME280;4926;42.670;23.316;2022-07-10T03:13:11;94406.69;;;16.84;100.00
9774;BME280;4926;42.670;23.316;2022-07-10T03:15:38;94412.06;;;16.84;100.00
9774;BME280;4926;42.670;23.316;2022-07-10T03:18:05;94413.91;;;16.92;100.00
9774;BME280;4926;42.670;23.316;2022-07-10T03:20:36;94416.59;;;16.92;100.00
9774;BME280;4926;42.670;23.316;2022-07-10T03:23:03;94413.91;;;16.92;100.00
9774;BME280;4926;42.670;23.316;2022-07-10T03:25:30;94422.41;;;16.94;100.00
9774;BME280;4926;42.670;23.316;2022-07-10T03:27:57;94417.38;;;16.92;100.00
9774;BME280;4926;42.670;23.316;2022-07-10T03:30:24;94409.19;;;16.89;100.00
9774;BME280;4926;42.670;23.316;2022-07-10T03:32:50;94417.72;;;16.91;100.00
9774;BME280;4926;42.670;23.316;2022-07-10T03:35:17;94418.63;;;16.95;100.00
9774;BME280;4926;42.670;23.316;2022-07-10T03:37:46;94417.03;;;16.94;100.00
9774;BME280;4926;42.670;23.316;2022-07-10T03:40:13;94419.44;;;16.95;100.00
9774;BME280;4926;42.670;23.316;2022-07-10T03:42:40;94416.28;;;16.93;100.00
9774;BME280;4926;42.670;23.316;2022-07-10T03:45:10;94410.22;;;16.96;100.00
9774;BME280;4926;42.670;23.316;2022-07-10T03:47:37;94417.31;;;17.01;100.00
9774;BME280;4926;42.670;23.316;2022-07-10T03:50:04;94409.81;;;17.06;100.00
9774;BME280;4926;42.670;23.316;2022-07-10T03:52:34;94410.50;;;17.03;100.00
9774;BME280;4926;42.670;23.316;2022-07-10T03:55:05;94408.25;;;17.05;100.00
9774;BME280;4926;42.670;23.316;2022-07-10T03:57:34;94401.41;;;17.08;100.00
9774;BME280;4926;42.670;23.316;2022-07-10T04:00:18;94401.78;;;17.18;100.00
9774;BME280;4926;42.670;23.316;2022-07-10T04:02:46;94409.91;;;17.30;100.00
9774;BME280;4926;42.670;23.316;2022-07-10T04:05:15;94404.84;;;17.29;100.00
9774;BME280;4926;42.670;23.316;2022-07-10T04:07:42;94400.59;;;17.28;100.00
9774;BME280;4926;42.670;23.316;2022-07-10T04:10:10;94402.28;;;17.32;100.00
9774;BME280;4926;42.670;23.316;2022-07-10T04:12:46;94404.22;;;17.32;100.00
9774;BME280;4926;42.670;23.316;2022-07-10T04:15:16;94395.69;;;17.30;100.00
9774;BME280;4926;42.670;23.316;2022-07-10T04:17:43;94397.91;;;17.28;100.00
9774;BME280;4926;42.670;23.316;2022-07-10T04:20:10;94388.72;;;17.29;100.00
9774;BME280;4926;42.670;23.316;2022-07-10T04:22:39;94390.31;;;17.42;100.00
9774;BME280;4926;42.670;23.316;2022-07-10T04:25:07;94395.19;;;17.48;100.00
9774;BME280;4926;42.670;23.316;2022-07-10T04:27:35;94381.91;;;17.43;100.00
9774;BME280;4926;42.670;23.316;2022-07-10T04:30:06;94390.38;;;17.54;100.00
9774;BME280;4926;42.670;23.316;2022-07-10T04:32:33;94389.47;;;17.62;100.00
9774;BME280;4926;42.670;23.316;2022-07-10T04:35:03;94395.78;;;17.66;100.00
9774;BME280;4926;42.670;23.316;2022-07-10T04:37:30;94395.22;;;17.72;100.00
9774;BME280;4926;42.670;23.316;2022-07-10T04:39:57;94389.94;;;17.64;100.00
9774;BME280;4926;42.670;23.316;2022-07-10T04:42:24;94389.94;;;17.76;100.00
9774;BME280;4926;42.670;23.316;2022-07-10T04:44:52;94395.56;;;17.83;100.00
9774;BME280;4926;42.670;23.316;2022-07-10T04:47:25;94392.75;;;17.79;100.00
9774;BME280;4926;42.670;23.316;2022-07-10T04:49:54;94387.50;;;17.83;100.00
9774;BME280;4926;42.670;23.316;2022-07-10T04:52:24;94385.03;;;17.90;100.00
9774;BME280;4926;42.670;23.316;2022-07-10T04:54:51;94390.66;;;17.97;100.00
9774;BME280;4926;42.670;23.316;2022-07-10T04:57:20;94389.41;;;18.07;100.00
9774;BME280;4926;42.670;23.316;2022-07-10T04:59:47;94379.88;;;18.09;100.00
9774;BME280;4926;42.670;23.316;2022-07-10T05:02:18;94390.97;;;18.08;100.00
9774;BME280;4926;42.670;23.316;2022-07-10T05:04:46;94384.91;;;17.99;100.00
9774;BME280;4926;42.670;23.316;2022-07-10T05:07:15;94397.06;;;18.05;100.00
9774;BME280;4926;42.670;23.316;2022-07-10T05:09:42;94386.38;;;18.08;100.00
9774;BME280;4926;42.670;23.316;2022-07-10T05:12:09;94387.41;;;18.16;100.00
9774;BME280;4926;42.670;23.316;2022-07-10T05:14:35;94392.56;;;18.21;100.00
9774;BME280;4926;42.670;23.316;2022-07-10T05:17:03;94398.28;;;18.19;100.00
9774;BME280;4926;42.670;23.316;2022-07-10T05:19:31;94392.00;;;18.15;100.00
9774;BME280;4926;42.670;23.316;2022-07-10T05:21:58;94381.78;;;18.21;100.00
9774;BME280;4926;42.670;23.316;2022-07-10T05:24:27;94383.91;;;18.27;100.00
9774;BME280;4926;42.670;23.316;2022-07-10T05:27:00;94386.47;;;18.36;100.00
9774;BME280;4926;42.670;23.316;2022-07-10T05:29:27;94389.97;;;18.48;100.00
9774;BME280;4926;42.670;23.316;2022-07-10T05:31:54;94385.72;;;18.47;100.00
9774;BME280;4926;42.670;23.316;2022-07-10T05:34:24;94390.19;;;18.31;100.00
9774;BME280;4926;42.670;23.316;2022-07-10T05:36:54;94380.97;;;18.32;100.00
9774;BME280;4926;42.670;23.316;2022-07-10T05:39:24;94371.88;;;18.37;100.00
9774;BME280;4926;42.670;23.316;2022-07-10T05:41:52;94394.09;;;18.34;100.00
9774;BME280;4926;42.670;23.316;2022-07-10T05:44:19;94380.09;;;18.16;100.00
9774;BME280;4926;42.670;23.316;2022-07-10T05:46:46;94377.84;;;18.18;100.00
9774;BME280;4926;42.670;23.316;2022-07-10T05:49:13;94380.09;;;18.16;100.00
9774;BME280;4926;42.670;23.316;2022-07-10T05:51:42;94386.59;;;18.15;100.00
9774;BME280;4926;42.670;23.316;2022-07-10T05:54:10;94393.66;;;18.20;100.00
9774;BME280;4926;42.670;23.316;2022-07-10T05:56:38;94386.03;;;18.22;100.00
9774;BME280;4926;42.670;23.316;2022-07-10T05:59:05;94385.91;;;18.42;100.00
9774;BME280;4926;42.670;23.316;2022-07-10T06:01:32;94393.00;;;18.47;100.00
9774;BME280;4926;42.670;23.316;2022-07-10T06:04:01;94385.59;;;18.56;98.63
9774;BME280;4926;42.670;23.316;2022-07-10T06:06:28;94391.94;;;18.63;94.77
9774;BME280;4926;42.670;23.316;2022-07-10T06:08:55;94386.09;;;18.73;95.60
9774;BME280;4926;42.670;23.316;2022-07-10T06:11:27;94388.75;;;18.85;94.41
9774;BME280;4926;42.670;23.316;2022-07-10T06:13:54;94388.47;;;19.03;93.87
9774;BME280;4926;42.670;23.316;2022-07-10T06:16:31;94386.22;;;19.05;92.70
9774;BME280;4926;42.670;23.316;2022-07-10T06:18:58;94381.41;;;19.26;93.32
9774;BME280;4926;42.670;23.316;2022-07-10T06:21:24;94381.56;;;19.45;93.07
9774;BME280;4926;42.670;23.316;2022-07-10T06:23:53;94377.91;;;19.53;91.57
9774;BME280;4926;42.670;23.316;2022-07-10T06:26:20;94374.84;;;19.70;90.43
9774;BME280;4926;42.670;23.316;2022-07-10T06:28:52;94384.63;;;19.90;88.95
9774;BME280;4926;42.670;23.316;2022-07-10T06:31:18;94383.34;;;19.99;86.26
9774;BME280;4926;42.670;23.316;2022-07-10T06:33:45;94382.53;;;19.99;83.88
9774;BME280;4926;42.670;23.316;2022-07-10T06:36:19;94372.28;;;20.20;83.00
9774;BME280;4926;42.670;23.316;2022-07-10T06:38:46;94379.22;;;20.37;82.42
9774;BME280;4926;42.670;23.316;2022-07-10T06:41:13;94374.22;;;20.39;80.60
9774;BME280;4926;42.670;23.316;2022-07-10T06:43:40;94378.00;;;20.34;80.91
9774;BME280;4926;42.670;23.316;2022-07-10T06:46:08;94375.63;;;20.48;80.15
9774;BME280;4926;42.670;23.316;2022-07-10T06:48:37;94376.63;;;20.59;78.29
9774;BME280;4926;42.670;23.316;2022-07-10T06:51:05;94368.50;;;20.59;78.61
9774;BME280;4926;42.670;23.316;2022-07-10T06:53:33;94369.56;;;20.55;77.59
9774;BME280;4926;42.670;23.316;2022-07-10T06:56:00;94368.34;;;20.52;78.73
9774;BME280;4926;42.670;23.316;2022-07-10T06:58:27;94373.22;;;20.62;78.45
9774;BME280;4926;42.670;23.316;2022-07-10T07:00:53;94372.94;;;20.67;79.16
9774;BME280;4926;42.670;23.316;2022-07-10T07:03:22;94364.63;;;20.95;78.54
9774;BME280;4926;42.670;23.316;2022-07-10T07:05:48;94370.22;;;21.21;76.57
9774;BME280;4926;42.670;23.316;2022-07-10T07:08:15;94370.38;;;21.51;76.34
9774;BME280;4926;42.670;23.316;2022-07-10T07:10:42;94368.03;;;21.72;75.15
9774;BME280;4926;42.670;23.316;2022-07-10T07:13:10;94366.47;;;21.90;73.49
9774;BME280;4926;42.670;23.316;2022-07-10T07:15:39;94362.09;;;22.08;72.28
9774;BME280;4926;42.670;23.316;2022-07-10T07:18:08;94352.47;;;22.37;72.39
9774;BME280;4926;42.670;23.316;2022-07-10T07:20:39;94364.22;;;22.70;71.16
9774;BME280;4926;42.670;23.316;2022-07-10T07:23:23;94359.94;;;22.69;68.53
9774;BME280;4926;42.670;23.316;2022-07-10T07:25:50;94354.03;;;22.90;67.22
9774;BME280;4926;42.670;23.316;2022-07-10T07:28:17;94367.88;;;22.85;67.73
9774;BME280;4926;42.670;23.316;2022-07-10T07:30:45;94351.06;;;23.02;67.10
9774;BME280;4926;42.670;23.316;2022-07-10T07:33:16;94359.91;;;23.29;66.88
9774;BME280;4926;42.670;23.316;2022-07-10T07:35:45;94352.50;;;23.25;65.41
9774;BME280;4926;42.670;23.316;2022-07-10T07:38:12;94343.47;;;23.14;65.04
9774;BME280;4926;42.670;23.316;2022-07-10T07:40:39;94356.63;;;23.12;64.44
9774;BME280;4926;42.670;23.316;2022-07-10T07:43:06;94358.81;;;23.33;64.28
9774;BME280;4926;42.670;23.316;2022-07-10T07:45:32;94357.06;;;23.48;64.49
9774;BME280;4926;42.670;23.316;2022-07-10T07:47:59;94353.91;;;23.46;63.87
9774;BME280;4926;42.670;23.316;2022-07-10T07:50:30;94347.00;;;23.55;63.76
9774;BME280;4926;42.670;23.316;2022-07-10T07:53:00;94344.84;;;23.71;63.59
9774;BME280;4926;42.670;23.316;2022-07-10T07:55:28;94354.34;;;23.88;63.40
9774;BME280;4926;42.670;23.316;2022-07-10T07:57:56;94354.78;;;23.97;64.47
9774;BME280;4926;42.670;23.316;2022-07-10T08:00:25;94344.19;;;24.28;62.17
9774;BME280;4926;42.670;23.316;2022-07-10T08:02:53;94333.81;;;24.48;60.38
9774;BME280;4926;42.670;23.316;2022-07-10T08:05:20;94325.38;;;24.67;59.88
9774;BME280;4926;42.670;23.316;2022-07-10T08:07:51;94319.25;;;24.81;58.38
9774;BME280;4926;42.670;23.316;2022-07-10T08:10:22;94326.25;;;24.75;59.08
9774;BME280;4926;42.670;23.316;2022-07-10T08:12:49;94321.19;;;24.73;57.72
9774;BME280;4926;42.670;23.316;2022-07-10T08:15:20;94310.41;;;25.01;56.80
9774;BME280;4926;42.670;23.316;2022-07-10T08:17:48;94308.88;;;25.11;55.65
9774;BME280;4926;42.670;23.316;2022-07-10T08:20:15;94317.88;;;25.25;56.47
9774;BME280;4926;42.670;23.316;2022-07-10T08:22:43;94305.53;;;25.60;55.00
9774;BME280;4926;42.670;23.316;2022-07-10T08:25:10;94311.78;;;25.92;53.72
9774;BME280;4926;42.670;23.316;2022-07-10T08:27:39;94298.56;;;26.08;51.33
9774;BME280;4926;42.670;23.316;2022-07-10T08:30:07;94311.34;;;25.48;53.38
9774;BME280;4926;42.670;23.316;2022-07-10T08:32:35;94309.38;;;25.41;54.46
9774;BME280;4926;42.670;23.316;2022-07-10T08:35:03;94313.31;;;25.44;54.31
9774;BME280;4926;42.670;23.316;2022-07-10T08:37:36;94309.44;;;25.73;51.72
9774;BME280;4926;42.670;23.316;2022-07-10T08:40:05;94297.38;;;25.91;50.74
9774;BME280;4926;42.670;23.316;2022-07-10T08:42:32;94311.34;;;25.48;52.41
9774;BME280;4926;42.670;23.316;2022-07-10T08:45:03;94309.81;;;25.54;52.17
9774;BME280;4926;42.670;23.316;2022-07-10T08:47:30;94314.75;;;25.23;53.13
9774;BME280;4926;42.670;23.316;2022-07-10T08:50:00;94321.03;;;25.34;52.94
9774;BME280;4926;42.670;23.316;2022-07-10T08:52:33;94297.72;;;25.58;50.29
9774;BME280;4926;42.670;23.316;2022-07-10T08:55:01;94309.41;;;25.52;52.19
9774;BME280;4926;42.670;23.316;2022-07-10T08:57:28;94293.84;;;25.56;50.78
9774;BME280;4926;42.670;23.316;2022-07-10T08:59:57;94283.34;;;25.86;48.09
9774;BME280;4926;42.670;23.316;2022-07-10T09:02:25;94277.13;;;25.96;47.98
9774;BME280;4926;42.670;23.316;2022-07-10T09:04:52;94275.88;;;26.53;48.49
9774;BME280;4926;42.670;23.316;2022-07-10T09:07:19;94277.88;;;26.35;48.48
9774;BME280;4926;42.670;23.316;2022-07-10T09:09:54;94275.88;;;26.57;48.45
9774;BME280;4926;42.670;23.316;2022-07-10T09:12:22;94278.19;;;26.62;47.66
9774;BME280;4926;42.670;23.316;2022-07-10T09:14:51;94273.44;;;26.97;47.68
9774;BME280;4926;42.670;23.316;2022-07-10T09:17:19;94266.16;;;27.45;46.91
9774;BME280;4926;42.670;23.316;2022-07-10T09:19:50;94258.72;;;27.49;46.52
9774;BME280;4926;42.670;23.316;2022-07-10T09:22:22;94257.63;;;27.33;45.53
9774;BME280;4926;42.670;23.316;2022-07-10T09:24:49;94271.69;;;27.38;46.50
9774;BME280;4926;42.670;23.316;2022-07-10T09:27:16;94263.28;;;27.67;46.66
9774;BME280;4926;42.670;23.316;2022-07-10T09:29:46;94251.00;;;27.89;44.82
9774;BME280;4926;42.670;23.316;2022-07-10T09:32:13;94252.03;;;28.09;44.59
9774;BME280;4926;42.670;23.316;2022-07-10T09:34:42;94245.59;;;28.26;43.68
9774;BME280;4926;42.670;23.316;2022-07-10T09:37:24;94238.38;;;28.46;43.86
9774;BME280;4926;42.670;23.316;2022-07-10T09:39:56;94236.44;;;28.43;44.06
9774;BME280;4926;42.670;23.316;2022-07-10T09:42:25;94244.31;;;27.97;44.37
9774;BME280;4926;42.670;23.316;2022-07-10T09:44:52;94247.78;;;27.49;45.04
9774;BME280;4926;42.670;23.316;2022-07-10T09:47:22;94259.31;;;27.13;45.69
9774;BME280;4926;42.670;23.316;2022-07-10T09:49:48;94257.00;;;27.04;45.34
9774;BME280;4926;42.670;23.316;2022-07-10T09:52:18;94242.78;;;27.37;45.67
9774;BME280;4926;42.670;23.316;2022-07-10T09:54:47;94252.03;;;27.58;45.57
9774;BME280;4926;42.670;23.316;2022-07-10T09:57:16;94232.56;;;27.45;44.23
9774;BME280;4926;42.670;23.316;2022-07-10T09:59:44;94240.88;;;27.86;44.82
9774;BME280;4926;42.670;23.316;2022-07-10T10:02:17;94228.38;;;28.29;42.83
9774;BME280;4926;42.670;23.316;2022-07-10T10:04:47;94221.53;;;28.51;43.32
9774;BME280;4926;42.670;23.316;2022-07-10T10:07:18;94216.88;;;28.78;42.69
9774;BME280;4926;42.670;23.316;2022-07-10T10:09:50;94212.41;;;28.20;41.88
9774;BME280;4926;42.670;23.316;2022-07-10T10:12:25;94230.28;;;27.88;43.29
9774;BME280;4926;42.670;23.316;2022-07-10T10:14:57;94232.66;;;27.86;43.78
9774;BME280;4926;42.670;23.316;2022-07-10T10:17:27;94225.63;;;27.85;42.63
9774;BME280;4926;42.670;23.316;2022-07-10T10:19:55;94229.91;;;27.31;44.17
9774;BME280;4926;42.670;23.316;2022-07-10T10:22:42;94233.72;;;26.61;45.27
9774;BME280;4926;42.670;23.316;2022-07-10T10:25:12;94232.63;;;26.41;45.44
9774;BME280;4926;42.670;23.316;2022-07-10T10:27:43;94236.53;;;26.36;46.03
9774;BME280;4926;42.670;23.316;2022-07-10T10:30:13;94236.47;;;26.68;45.84
9774;BME280;4926;42.670;23.316;2022-07-10T10:32:40;94234.47;;;26.83;45.93
9774;BME280;4926;42.670;23.316;2022-07-10T10:35:08;94233.78;;;26.43;46.50
9774;BME280;4926;42.670;23.316;2022-07-10T10:37:36;94238.53;;;26.25;47.11
9774;BME280;4926;42.670;23.316;2022-07-10T10:40:04;94240.06;;;26.30;47.73
9774;BME280;4926;42.670;23.316;2022-07-10T10:42:36;94236.94;;;26.28;47.17
9774;BME280;4926;42.670;23.316;2022-07-10T10:45:23;94240.84;;;26.27;47.64
9774;BME280;4926;42.670;23.316;2022-07-10T10:48:00;94246.72;;;26.11;47.36
9774;BME280;4926;42.670;23.316;2022-07-10T10:50:38;94242.41;;;25.89;47.00
9774;BME280;4926;42.670;23.316;2022-07-10T10:53:14;94238.94;;;25.85;46.94
9774;BME280;4926;42.670;23.316;2022-07-10T10:58:48;94245.94;;;25.97;48.09
9774;BME280;4926;42.670;23.316;2022-07-10T11:01:29;94234.63;;;26.09;47.45
9774;BME280;4926;42.670;23.316;2022-07-10T11:04:14;94228.44;;;26.05;46.40
9774;BME280;4926;42.670;23.316;2022-07-10T11:06:47;94226.84;;;26.11;46.30
9774;BME280;4926;42.670;23.316;2022-07-10T11:09:22;94232.66;;;26.23;46.14
9774;BME280;4926;42.670;23.316;2022-07-10T11:12:00;94219.81;;;26.17;45.24
9774;BME280;4926;42.670;23.316;2022-07-10T11:14:30;94220.16;;;26.26;45.57
9774;BME280;4926;42.670;23.316;2022-07-10T11:16:57;94219.00;;;26.34;46.16
9774;BME280;4926;42.670;23.316;2022-07-10T11:19:25;94210.00;;;26.40;45.08
9774;BME280;4926;42.670;23.316;2022-07-10T11:22:13;94203.91;;;27.05;44.48
9774;BME280;4926;42.670;23.316;2022-07-10T11:24:55;94203.66;;;27.47;44.10
9774;BME280;4926;42.670;23.316;2022-07-10T11:27:36;94201.97;;;27.02;44.68
9774;BME280;4926;42.670;23.316;2022-07-10T11:30:12;94213.28;;;27.04;45.27
9774;BME280;4926;42.670;23.316;2022-07-10T11:32:41;94205.66;;;26.57;45.86
9774;BME280;4926;42.670;23.316;2022-07-10T11:35:10;94215.50;;;26.23;46.14
9774;BME280;4926;42.670;23.316;2022-07-10T11:37:48;94205.78;;;26.01;47.16
9774;BME280;4926;42.670;23.316;2022-07-10T11:40:16;94219.81;;;25.99;47.51
9774;BME280;4926;42.670;23.316;2022-07-10T11:42:52;94218.66;;;25.97;47.13
9774;BME280;4926;42.670;23.316;2022-07-10T11:45:30;94228.78;;;25.79;47.53
9774;BME280;4926;42.670;23.316;2022-07-10T11:47:58;94232.69;;;25.64;47.55
9774;BME280;4926;42.670;23.316;2022-07-10T11:50:26;94218.66;;;25.83;47.74
9774;BME280;4926;42.670;23.316;2022-07-10T11:52:54;94215.91;;;26.21;46.45
9774;BME280;4926;42.670;23.316;2022-07-10T11:55:26;94207.25;;;26.51;45.72
9774;BME280;4926;42.670;23.316;2022-07-10T11:57:54;94207.81;;;27.04;45.64
9774;BME280;4926;42.670;23.316;2022-07-10T12:00:25;94197.41;;;27.43;44.24
9774;BME280;4926;42.670;23.316;2022-07-10T12:02:54;94193.03;;;27.57;43.96
9774;BME280;4926;42.670;23.316;2022-07-10T12:05:32;94200.22;;;27.36;43.80
9774;BME280;4926;42.670;23.316;2022-07-10T12:08:02;94198.81;;;27.07;43.19
9774;BME280;4926;42.670;23.316;2022-07-10T12:10:32;94204.03;;;26.77;43.33
9774;BME280;4926;42.670;23.316;2022-07-10T12:13:04;94199.03;;;26.55;44.17
9774;BME280;4926;42.670;23.316;2022-07-10T12:15:33;94209.16;;;26.58;44.76
9774;BME280;4926;42.670;23.316;2022-07-10T12:18:06;94198.66;;;26.45;44.23
9774;BME280;4926;42.670;23.316;2022-07-10T12:20:33;94197.91;;;26.52;44.01
9774;BME280;4926;42.670;23.316;2022-07-10T12:23:03;94202.16;;;26.53;43.89
9774;BME280;4926;42.670;23.316;2022-07-10T12:25:32;94198.69;;;26.42;43.57
9774;BME280;4926;42.670;23.316;2022-07-10T12:27:59;94198.00;;;25.99;44.19
9774;BME280;4926;42.670;23.316;2022-07-10T12:30:39;94204.22;;;25.89;44.37
9774;BME280;4926;42.670;23.316;2022-07-10T12:33:15;94204.22;;;25.86;44.42
9774;BME280;4926;42.670;23.316;2022-07-10T12:35:50;94201.53;;;25.72;44.72
9774;BME280;4926;42.670;23.316;2022-07-10T12:38:18;94207.38;;;25.74;44.65
9774;BME280;4926;42.670;23.316;2022-07-10T12:41:04;94203.50;;;25.68;44.89
9774;BME280;4926;42.670;23.316;2022-07-10T12:43:32;94211.28;;;25.52;45.09
9774;BME280;4926;42.670;23.316;2022-07-10T12:46:14;94201.56;;;25.58;44.33
9774;BME280;4926;42.670;23.316;2022-07-10T12:48:43;94196.09;;;25.58;43.44
9774;BME280;4926;42.670;23.316;2022-07-10T12:51:47;94199.56;;;25.41;43.34
9774;BME280;4926;42.670;23.316;2022-07-10T12:54:35;94194.13;;;25.41;42.35
9774;BME280;4926;42.670;23.316;2022-07-10T12:57:05;94195.69;;;25.38;43.40
9774;BME280;4926;42.670;23.316;2022-07-10T12:59:36;94196.47;;;25.56;43.14
9774;BME280;4926;42.670;23.316;2022-07-10T13:02:17;94179.34;;;25.49;41.78
9774;BME280;4926;42.670;23.316;2022-07-10T13:04:55;94191.75;;;25.32;40.88
9774;BME280;4926;42.670;23.316;2022-07-10T13:07:29;94190.94;;;25.21;41.16
9774;BME280;4926;42.670;23.316;2022-07-10T13:10:01;94175.38;;;25.18;41.38
9774;BME280;4926;42.670;23.316;2022-07-10T13:12:28;94183.19;;;25.30;40.87
9774;BME280;4926;42.670;23.316;2022-07-10T13:14:58;94170.72;;;25.18;40.60
9774;BME280;4926;42.670;23.316;2022-07-10T13:17:25;94169.94;;;25.32;39.95
9774;BME280;4926;42.670;23.316;2022-07-10T13:19:52;94163.00;;;25.56;38.92